createdAt,value
2018-04-30T00:00:23.117Z,9.42
2018-04-30T00:01:22.868Z,9.46
2018-04-30T00:02:22.905Z,9.46
2018-04-30T00:03:22.881Z,9.43
2018-04-30T00:04:22.834Z,9.45
2018-04-30T00:05:22.949Z,9.47
2018-04-30T00:06:22.848Z,9.58
2018-04-30T00:07:22.849Z,9.6
2018-04-30T00:08:22.877Z,9.54
2018-04-30T00:09:22.838Z,9.56
2018-04-30T00:10:23.214Z,9.69
2018-04-30T00:11:22.843Z,9.65
2018-04-30T00:12:22.870Z,9.7
2018-04-30T00:13:22.868Z,9.47
2018-04-30T00:14:22.905Z,9.44
2018-04-30T00:15:22.911Z,9.51
2018-04-30T00:16:22.900Z,9.55
2018-04-30T00:17:22.934Z,9.5
2018-04-30T00:18:23.010Z,9.16
2018-04-30T00:19:22.936Z,9.02
2018-04-30T00:20:22.883Z,8.71
2018-04-30T00:21:22.863Z,8.79
2018-04-30T00:22:22.915Z,8.61
2018-04-30T00:23:22.965Z,8.51
2018-04-30T00:24:22.913Z,8.54
2018-04-30T00:25:22.947Z,8.56
2018-04-30T00:26:22.936Z,8.6
2018-04-30T00:27:22.954Z,8.53
2018-04-30T00:28:22.934Z,8.4
2018-04-30T00:29:22.884Z,8.35
2018-04-30T00:30:22.920Z,8.34
2018-04-30T00:31:22.867Z,8.24
2018-04-30T00:32:22.903Z,8.2
2018-04-30T00:33:23.010Z,8.19
2018-04-30T00:34:22.948Z,8.14
2018-04-30T00:35:22.917Z,8.16
2018-04-30T00:36:22.916Z,8.16
2018-04-30T00:37:22.899Z,8.09
2018-04-30T00:38:22.894Z,8.11
2018-04-30T00:39:22.986Z,8.19
2018-04-30T00:40:22.993Z,8.06
2018-04-30T00:41:22.869Z,8.11
2018-04-30T00:42:22.899Z,8.14
2018-04-30T00:43:22.895Z,8.1
2018-04-30T00:44:22.947Z,8.21
2018-04-30T00:45:22.891Z,8.18
2018-04-30T00:46:22.884Z,8.31
2018-04-30T00:47:22.871Z,8.17
2018-04-30T00:48:22.888Z,8.22
2018-04-30T00:49:22.958Z,8.22
2018-04-30T00:50:22.913Z,8.34
2018-04-30T00:51:22.891Z,8.12
2018-04-30T00:52:22.876Z,8.08
2018-04-30T00:53:22.977Z,8.12
2018-04-30T00:54:22.919Z,7.98
2018-04-30T00:55:22.885Z,7.9
2018-04-30T00:56:22.934Z,8
2018-04-30T00:57:22.897Z,8.04
2018-04-30T00:58:23.019Z,7.8
2018-04-30T00:59:22.842Z,7.77
2018-04-30T01:00:22.821Z,7.71
2018-04-30T01:01:22.877Z,7.75
2018-04-30T01:02:22.891Z,7.77
2018-04-30T01:03:23.140Z,7.84
2018-04-30T01:04:22.898Z,7.79
2018-04-30T01:05:22.840Z,7.74
2018-04-30T01:06:23.057Z,7.61
2018-04-30T01:07:22.999Z,7.6
2018-04-30T01:08:22.862Z,7.35
2018-04-30T01:09:22.878Z,7.32
2018-04-30T01:10:22.915Z,7.29
2018-04-30T01:11:22.911Z,7.34
2018-04-30T01:12:22.859Z,7.43
2018-04-30T01:13:22.865Z,7.38
2018-04-30T01:14:22.858Z,7.32
2018-04-30T01:15:22.840Z,7.24
2018-04-30T01:16:22.826Z,7.21
2018-04-30T01:17:22.822Z,7.04
2018-04-30T01:18:22.875Z,6.91
2018-04-30T01:19:22.910Z,6.99
2018-04-30T01:20:22.885Z,7
2018-04-30T01:21:22.889Z,6.93
2018-04-30T01:22:22.944Z,6.88
2018-04-30T01:23:22.900Z,6.87
2018-04-30T01:24:22.851Z,6.97
2018-04-30T01:25:22.865Z,6.88
2018-04-30T01:26:22.850Z,6.82
2018-04-30T01:27:22.824Z,6.86
2018-04-30T01:28:22.882Z,6.84
2018-04-30T01:29:22.859Z,6.87
2018-04-30T01:30:22.855Z,6.89
2018-04-30T01:31:22.927Z,6.9
2018-04-30T01:32:22.831Z,6.89
2018-04-30T01:33:22.938Z,6.87
2018-04-30T01:34:22.827Z,6.9
2018-04-30T01:35:22.811Z,6.95
2018-04-30T01:36:22.912Z,6.89
2018-04-30T01:37:22.875Z,6.94
2018-04-30T01:38:22.894Z,6.93
2018-04-30T01:39:22.984Z,7.01
2018-04-30T01:40:22.843Z,6.92
2018-04-30T01:41:23.231Z,6.92
2018-04-30T01:42:22.856Z,6.94
2018-04-30T01:43:22.845Z,6.91
2018-04-30T01:44:22.911Z,6.93
2018-04-30T01:45:22.903Z,7.06
2018-04-30T01:46:22.880Z,7.04
2018-04-30T01:47:23.007Z,6.97
2018-04-30T01:48:22.878Z,7.01
2018-04-30T01:49:22.864Z,7.03
2018-04-30T01:50:22.875Z,7.04
2018-04-30T01:51:22.878Z,7.11
2018-04-30T01:52:22.948Z,7.13
2018-04-30T01:53:22.980Z,7.13
2018-04-30T01:54:22.893Z,7.09
2018-04-30T01:55:22.915Z,7.16
2018-04-30T01:56:22.995Z,7.06
2018-04-30T01:57:22.871Z,7.12
2018-04-30T01:58:22.886Z,7.09
2018-04-30T01:59:22.844Z,7.13
2018-04-30T02:00:22.850Z,7.09
2018-04-30T02:01:22.858Z,7.13
2018-04-30T02:02:22.867Z,7.06
2018-04-30T02:03:22.952Z,7.09
2018-04-30T02:04:22.874Z,7.13
2018-04-30T02:05:23.049Z,7.19
2018-04-30T02:06:22.850Z,7.18
2018-04-30T02:07:22.846Z,7.21
2018-04-30T02:08:22.865Z,7.21
2018-04-30T02:09:22.890Z,7.29
2018-04-30T02:10:22.892Z,7.08
2018-04-30T02:11:22.960Z,7.11
2018-04-30T02:12:22.846Z,7.08
2018-04-30T02:13:22.877Z,7.15
2018-04-30T02:14:22.876Z,7.06
2018-04-30T02:15:22.876Z,7.11
2018-04-30T02:16:22.972Z,7.12
2018-04-30T02:17:22.867Z,7.13
2018-04-30T02:18:22.872Z,7.16
2018-04-30T02:19:22.908Z,7.21
2018-04-30T02:20:22.822Z,7.2
2018-04-30T02:21:22.865Z,7.22
2018-04-30T02:22:22.859Z,7.19
2018-04-30T02:23:22.881Z,7.23
2018-04-30T02:24:22.885Z,7.17
2018-04-30T02:25:22.896Z,7.11
2018-04-30T02:26:22.829Z,7.13
2018-04-30T02:27:22.884Z,7.16
2018-04-30T02:28:22.902Z,7.16
2018-04-30T02:29:22.920Z,7.22
2018-04-30T02:30:22.898Z,7.23
2018-04-30T02:31:22.897Z,7.27
2018-04-30T02:32:22.875Z,7.31
2018-04-30T02:33:22.853Z,7.33
2018-04-30T02:34:22.931Z,7.28
2018-04-30T02:35:22.881Z,7.31
2018-04-30T02:36:22.895Z,7.31
2018-04-30T02:37:22.893Z,7.24
2018-04-30T02:38:22.924Z,7.2
2018-04-30T02:39:22.884Z,7.3
2018-04-30T02:40:22.951Z,7.17
2018-04-30T02:41:22.876Z,7.18
2018-04-30T02:42:22.867Z,7.22
2018-04-30T02:43:22.901Z,7.29
2018-04-30T02:44:22.996Z,7.28
2018-04-30T02:45:22.935Z,7.24
2018-04-30T02:46:22.920Z,7.26
2018-04-30T02:47:22.861Z,7.22
2018-04-30T02:48:22.912Z,7.2
2018-04-30T02:49:22.923Z,7.33
2018-04-30T02:50:23.063Z,7.24
2018-04-30T02:51:22.924Z,7.23
2018-04-30T02:52:22.921Z,7.22
2018-04-30T02:53:22.906Z,7.08
2018-04-30T02:54:22.985Z,6.89
2018-04-30T02:55:22.947Z,6.93
2018-04-30T02:56:22.876Z,6.96
2018-04-30T02:57:22.891Z,6.83
2018-04-30T02:58:22.920Z,6.79
2018-04-30T02:59:22.919Z,6.83
2018-04-30T03:00:22.937Z,6.87
2018-04-30T03:01:22.984Z,6.89
2018-04-30T03:02:22.918Z,6.78
2018-04-30T03:03:22.904Z,6.78
2018-04-30T03:04:22.914Z,6.85
2018-04-30T03:05:22.957Z,6.88
2018-04-30T03:06:22.955Z,6.93
2018-04-30T03:07:23.029Z,6.94
2018-04-30T03:08:22.918Z,6.85
2018-04-30T03:09:22.902Z,6.91
2018-04-30T03:10:22.938Z,6.84
2018-04-30T03:11:22.919Z,6.91
2018-04-30T03:12:22.925Z,6.9
2018-04-30T03:13:22.932Z,6.94
2018-04-30T03:14:22.875Z,6.93
2018-04-30T03:15:22.959Z,6.87
2018-04-30T03:16:22.929Z,6.86
2018-04-30T03:17:22.929Z,6.86
2018-04-30T03:18:22.950Z,6.96
2018-04-30T03:19:23.017Z,6.99
2018-04-30T03:20:23.206Z,7.02
2018-04-30T03:21:22.967Z,6.91
2018-04-30T03:22:22.904Z,6.93
2018-04-30T03:23:22.922Z,7.04
2018-04-30T03:24:22.938Z,7.13
2018-04-30T03:25:22.902Z,7.26
2018-04-30T03:26:22.936Z,7.24
2018-04-30T03:27:23.245Z,7.05
2018-04-30T03:28:22.901Z,7.03
2018-04-30T03:29:22.963Z,7.06
2018-04-30T03:30:22.927Z,7.08
2018-04-30T03:31:22.898Z,7.11
2018-04-30T03:32:22.909Z,7.04
2018-04-30T03:33:22.946Z,7.1
2018-04-30T03:34:22.917Z,7.01
2018-04-30T03:35:22.958Z,7.07
2018-04-30T03:36:22.890Z,7.11
2018-04-30T03:37:22.929Z,7.13
2018-04-30T03:38:22.869Z,7.2
2018-04-30T03:39:22.962Z,7.2
2018-04-30T03:40:22.879Z,7.24
2018-04-30T03:41:22.897Z,7.31
2018-04-30T03:42:22.894Z,7.28
2018-04-30T03:43:22.884Z,7.32
2018-04-30T03:44:22.876Z,7.26
2018-04-30T03:45:22.900Z,7.34
2018-04-30T03:46:22.887Z,7.34
2018-04-30T03:47:22.877Z,7.31
2018-04-30T03:48:23.184Z,7.35
2018-04-30T03:49:22.886Z,7.31
2018-04-30T03:50:22.904Z,7.18
2018-04-30T03:51:22.883Z,7.27
2018-04-30T03:52:22.945Z,7.28
2018-04-30T03:53:23.113Z,7.34
2018-04-30T03:54:22.876Z,7.43
2018-04-30T03:55:23.004Z,7.49
2018-04-30T03:56:22.876Z,7.43
2018-04-30T03:57:22.878Z,7.55
2018-04-30T03:58:22.951Z,7.62
2018-04-30T03:59:23.022Z,7.73
2018-04-30T04:00:22.955Z,7.83
2018-04-30T04:01:22.956Z,7.94
2018-04-30T04:02:22.980Z,7.92
2018-04-30T04:03:22.936Z,7.93
2018-04-30T04:04:23.090Z,8.11
2018-04-30T04:05:22.906Z,8.15
2018-04-30T04:06:22.946Z,8.33
2018-04-30T04:07:22.894Z,8.43
2018-04-30T04:08:22.925Z,8.38
2018-04-30T04:09:22.894Z,8.35
2018-04-30T04:10:22.894Z,8.55
2018-04-30T04:11:22.923Z,8.67
2018-04-30T04:12:22.883Z,8.48
2018-04-30T04:13:23.011Z,8.69
2018-04-30T04:14:22.916Z,8.73
2018-04-30T04:15:22.908Z,8.94
2018-04-30T04:16:22.898Z,9.06
2018-04-30T04:17:22.965Z,8.97
2018-04-30T04:18:22.917Z,9.12
2018-04-30T04:19:23.012Z,9.25
2018-04-30T04:20:22.998Z,9.09
2018-04-30T04:21:22.896Z,9.03
2018-04-30T04:22:22.938Z,8.96
2018-04-30T04:23:22.915Z,8.99
2018-04-30T04:24:22.951Z,9.29
2018-04-30T04:25:22.947Z,9.35
2018-04-30T04:26:22.901Z,9.34
2018-04-30T04:27:22.966Z,9.42
2018-04-30T04:28:23.047Z,9.32
2018-04-30T04:29:22.921Z,9.14
2018-04-30T04:30:23.012Z,9.17
2018-04-30T04:31:22.958Z,9.34
2018-04-30T04:32:23.026Z,9.28
2018-04-30T04:33:22.929Z,9.22
2018-04-30T04:34:22.919Z,9.03
2018-04-30T04:35:22.888Z,9.26
2018-04-30T04:36:23.050Z,9.2
2018-04-30T04:37:22.877Z,9.07
2018-04-30T04:38:22.964Z,9.14
2018-04-30T04:39:23.144Z,9.18
2018-04-30T04:40:22.934Z,8.97
2018-04-30T04:41:22.980Z,9.28
2018-04-30T04:42:22.896Z,9.23
2018-04-30T04:43:22.923Z,9.13
2018-04-30T04:44:22.964Z,8.95
2018-04-30T04:45:22.940Z,9.44
2018-04-30T04:46:22.930Z,9.26
2018-04-30T04:47:23.120Z,9.33
2018-04-30T04:48:22.943Z,9.4
2018-04-30T04:49:22.915Z,9.15
2018-04-30T04:50:22.974Z,9.4
2018-04-30T04:51:22.932Z,9.34
2018-04-30T04:52:23.001Z,9.14
2018-04-30T04:53:22.939Z,9.04
2018-04-30T04:54:22.916Z,9.27
2018-04-30T04:55:22.936Z,9.28
2018-04-30T04:56:22.951Z,9.14
2018-04-30T04:57:22.939Z,9.24
2018-04-30T04:58:22.923Z,9.28
2018-04-30T04:59:22.915Z,9.31
2018-04-30T05:00:22.941Z,9.35
2018-04-30T05:01:22.914Z,9.16
2018-04-30T05:02:23.384Z,9.27
2018-04-30T05:03:22.910Z,9.07
2018-04-30T05:04:23.085Z,9.13
2018-04-30T05:05:22.951Z,8.93
2018-04-30T05:06:22.997Z,8.91
2018-04-30T05:07:22.970Z,8.92
2018-04-30T05:08:22.950Z,8.76
2018-04-30T05:09:22.962Z,8.7
2018-04-30T05:10:22.970Z,8.84
2018-04-30T05:11:22.909Z,8.94
2018-04-30T05:12:22.949Z,8.98
2018-04-30T05:13:22.907Z,8.95
2018-04-30T05:14:22.943Z,8.82
2018-04-30T05:15:23.000Z,8.85
2018-04-30T05:16:22.973Z,8.79
2018-04-30T05:17:22.962Z,8.73
2018-04-30T05:18:23.090Z,8.77
2018-04-30T05:19:22.962Z,8.79
2018-04-30T05:20:22.941Z,8.83
2018-04-30T05:21:22.961Z,8.9
2018-04-30T05:22:22.987Z,8.84
2018-04-30T05:23:23.300Z,8.74
2018-04-30T05:24:23.039Z,8.68
2018-04-30T05:25:23.040Z,8.68
2018-04-30T05:26:22.964Z,8.64
2018-04-30T05:27:22.986Z,8.71
2018-04-30T05:28:23.000Z,8.72
2018-04-30T05:29:22.922Z,8.74
2018-04-30T05:30:22.980Z,8.61
2018-04-30T05:31:23.016Z,8.67
2018-04-30T05:32:22.976Z,8.51
2018-04-30T05:33:22.956Z,8.5
2018-04-30T05:34:22.977Z,8.46
2018-04-30T05:35:22.993Z,8.29
2018-04-30T05:36:22.964Z,8.29
2018-04-30T05:37:22.978Z,8.25
2018-04-30T05:38:22.965Z,8.16
2018-04-30T05:39:22.980Z,8.07
2018-04-30T05:40:22.950Z,8.07
2018-04-30T05:41:22.969Z,8.27
2018-04-30T05:42:23.005Z,8.13
2018-04-30T05:43:22.959Z,8.04
2018-04-30T05:44:23.350Z,8.01
2018-04-30T05:45:22.998Z,7.87
2018-04-30T05:46:22.952Z,8.04
2018-04-30T05:47:22.924Z,7.61
2018-04-30T05:48:23.019Z,7.4
2018-04-30T05:49:23.032Z,7.64
2018-04-30T05:50:22.937Z,7.92
2018-04-30T05:51:22.971Z,7.83
2018-04-30T05:52:22.934Z,7.85
2018-04-30T05:53:22.976Z,7.45
2018-04-30T05:54:22.942Z,7.56
2018-04-30T05:55:22.992Z,7.67
2018-04-30T05:56:22.938Z,7.89
2018-04-30T05:57:22.972Z,8.25
2018-04-30T05:58:22.969Z,8.05
2018-04-30T05:59:22.954Z,7.95
2018-04-30T06:00:23.037Z,7.97
2018-04-30T06:01:22.992Z,8.09
2018-04-30T06:02:23.070Z,7.87
2018-04-30T06:03:22.981Z,7.86
2018-04-30T06:04:23.392Z,7.91
2018-04-30T06:05:23.088Z,7.83
2018-04-30T06:06:23.007Z,7.73
2018-04-30T06:07:22.969Z,7.65
2018-04-30T06:08:22.965Z,7.76
2018-04-30T06:09:22.994Z,7.82
2018-04-30T06:10:23.001Z,8
2018-04-30T06:11:22.941Z,7.78
2018-04-30T06:12:22.973Z,7.74
2018-04-30T06:13:22.982Z,7.82
2018-04-30T06:14:22.985Z,7.77
2018-04-30T06:15:22.987Z,8
2018-04-30T06:16:22.942Z,7.75
2018-04-30T06:17:23.284Z,7.77
2018-04-30T06:18:22.952Z,7.96
2018-04-30T06:19:22.949Z,7.74
2018-04-30T06:20:22.965Z,8
2018-04-30T06:21:22.992Z,7.93
2018-04-30T06:22:23.015Z,7.84
2018-04-30T06:23:22.969Z,7.96
2018-04-30T06:24:22.999Z,7.86
2018-04-30T06:25:22.949Z,7.99
2018-04-30T06:26:22.991Z,7.95
2018-04-30T06:27:22.981Z,7.94
2018-04-30T06:28:22.981Z,7.93
2018-04-30T06:29:22.953Z,7.76
2018-04-30T06:30:22.994Z,7.67
2018-04-30T06:31:23.002Z,7.78
2018-04-30T06:32:24.412Z,7.72
2018-04-30T06:33:22.985Z,7.69
2018-04-30T06:34:22.953Z,7.7
2018-04-30T06:35:23.008Z,7.78
2018-04-30T06:36:22.953Z,7.63
2018-04-30T06:37:23.034Z,7.72
2018-04-30T06:38:23.314Z,7.72
2018-04-30T06:39:23.023Z,7.75
2018-04-30T06:40:22.965Z,7.87
2018-04-30T06:41:22.969Z,7.8
2018-04-30T06:42:23.012Z,7.86
2018-04-30T06:43:23.041Z,7.83
2018-04-30T06:44:23.058Z,7.8
2018-04-30T06:45:23.007Z,7.81
2018-04-30T06:46:23.012Z,7.85
2018-04-30T06:47:22.974Z,7.82
2018-04-30T06:48:22.986Z,7.95
2018-04-30T06:49:23.127Z,7.91
2018-04-30T06:50:23.078Z,7.95
2018-04-30T06:51:22.976Z,7.84
2018-04-30T06:52:23.043Z,7.73
2018-04-30T06:53:23.131Z,7.61
2018-04-30T06:54:23.027Z,7.83
2018-04-30T06:55:23.056Z,7.82
2018-04-30T06:56:22.957Z,7.63
2018-04-30T06:57:22.962Z,7.77
2018-04-30T06:58:22.985Z,7.78
2018-04-30T06:59:22.989Z,8.03
2018-04-30T07:00:23.468Z,7.9
2018-04-30T07:01:22.985Z,7.96
2018-04-30T07:02:23.107Z,8.04
2018-04-30T07:03:22.985Z,8.07
2018-04-30T07:04:22.970Z,8.11
2018-04-30T07:05:23.121Z,7.84
2018-04-30T07:06:22.971Z,7.82
2018-04-30T07:07:23.016Z,7.8
2018-04-30T07:08:22.960Z,7.84
2018-04-30T07:09:23.461Z,7.78
2018-04-30T07:10:23.057Z,7.8
2018-04-30T07:11:23.025Z,7.87
2018-04-30T07:12:22.975Z,7.78
2018-04-30T07:13:22.997Z,7.62
2018-04-30T07:14:23.019Z,7.88
2018-04-30T07:15:22.991Z,7.59
2018-04-30T07:16:22.977Z,7.81
2018-04-30T07:17:23.286Z,7.83
2018-04-30T07:18:22.999Z,8.11
2018-04-30T07:19:23.019Z,8.04
2018-04-30T07:20:22.971Z,7.93
2018-04-30T07:21:22.994Z,7.76
2018-04-30T07:22:23.002Z,7.68
2018-04-30T07:23:23.019Z,7.9
2018-04-30T07:24:22.978Z,8.09
2018-04-30T07:25:22.995Z,8.13
2018-04-30T07:26:23.065Z,7.96
2018-04-30T07:27:22.998Z,8.03
2018-04-30T07:28:23.025Z,7.87
2018-04-30T07:29:23.012Z,7.77
2018-04-30T07:30:22.984Z,7.29
2018-04-30T07:31:23.013Z,7.48
2018-04-30T07:32:22.982Z,7.46
2018-04-30T07:33:23.008Z,7.36
2018-04-30T07:34:22.983Z,7.49
2018-04-30T07:35:23.040Z,7.52
2018-04-30T07:36:23.104Z,7.6
2018-04-30T07:37:23.018Z,7.89
2018-04-30T07:38:23.052Z,7.86
2018-04-30T07:39:23.006Z,7.81
2018-04-30T07:40:22.993Z,7.56
2018-04-30T07:41:22.980Z,7.58
2018-04-30T07:42:23.019Z,7.69
2018-04-30T07:43:23.078Z,7.39
2018-04-30T07:44:23.013Z,7.59
2018-04-30T07:45:23.030Z,7.46
2018-04-30T07:46:23.043Z,7.5
2018-04-30T07:47:23.089Z,7.73
2018-04-30T07:48:23.100Z,7.61
2018-04-30T07:49:23.205Z,7.66
2018-04-30T07:50:23.277Z,7.88
2018-04-30T07:51:23.113Z,7.51
2018-04-30T07:52:23.016Z,7.36
2018-04-30T07:53:23.217Z,7.57
2018-04-30T07:54:23.020Z,7.69
2018-04-30T07:55:23.069Z,7.65
2018-04-30T07:56:23.117Z,6.94
2018-04-30T07:57:23.611Z,7.23
2018-04-30T07:58:22.981Z,7.13
2018-04-30T07:59:23.061Z,7.18
2018-04-30T08:00:23.043Z,7.23
2018-04-30T08:01:23.097Z,7.32
2018-04-30T08:02:23.043Z,7.37
2018-04-30T08:03:23.000Z,7.23
2018-04-30T08:04:23.013Z,7.46
2018-04-30T08:05:23.033Z,7.4
2018-04-30T08:06:23.015Z,7.17
2018-04-30T08:07:23.037Z,7.33
2018-04-30T08:08:23.030Z,7.04
2018-04-30T08:09:22.991Z,7.18
2018-04-30T08:10:23.009Z,7.37
2018-04-30T08:11:23.093Z,6.99
2018-04-30T08:12:23.049Z,6.91
2018-04-30T08:13:22.990Z,6.97
2018-04-30T08:14:23.024Z,6.86
2018-04-30T08:15:23.008Z,6.95
2018-04-30T08:16:23.090Z,6.94
2018-04-30T08:17:23.048Z,7.28
2018-04-30T08:18:23.043Z,7.47
2018-04-30T08:19:23.020Z,7.48
2018-04-30T08:20:23.025Z,7.79
2018-04-30T08:21:23.086Z,7.43
2018-04-30T08:22:23.017Z,7.41
2018-04-30T08:23:23.066Z,7.18
2018-04-30T08:24:23.064Z,7.37
2018-04-30T08:25:23.081Z,7.22
2018-04-30T08:26:23.224Z,7.02
2018-04-30T08:27:23.034Z,7.57
2018-04-30T08:28:22.982Z,7.3
2018-04-30T08:29:22.997Z,7.29
2018-04-30T08:30:23.020Z,7.35
2018-04-30T08:31:23.067Z,7.1
2018-04-30T08:32:23.020Z,7.11
2018-04-30T08:33:23.015Z,7.22
2018-04-30T08:34:23.060Z,7.09
2018-04-30T08:35:23.081Z,6.91
2018-04-30T08:36:23.018Z,7.16
2018-04-30T08:37:23.027Z,7.01
2018-04-30T08:38:23.032Z,6.69
2018-04-30T08:39:23.079Z,6.66
2018-04-30T08:40:23.056Z,6.85
2018-04-30T08:41:23.024Z,6.74
2018-04-30T08:42:23.027Z,7.18
2018-04-30T08:43:23.038Z,7.37
2018-04-30T08:44:23.385Z,7.31
2018-04-30T08:45:23.218Z,7.3
2018-04-30T08:46:23.512Z,6.91
2018-04-30T08:47:23.617Z,6.96
2018-04-30T08:48:23.397Z,6.92
2018-04-30T08:49:23.744Z,6.76
2018-04-30T08:50:24.534Z,6.72
2018-04-30T08:51:23.720Z,6.51
2018-04-30T08:52:23.017Z,6.87
2018-04-30T08:53:23.103Z,6.59
2018-04-30T08:54:23.018Z,6.73
2018-04-30T08:55:23.025Z,6.55
2018-04-30T08:56:23.763Z,6.78
2018-04-30T08:57:23.055Z,6.52
2018-04-30T08:58:23.057Z,6.3
2018-04-30T08:59:23.045Z,6.57
2018-04-30T09:00:23.883Z,6.56
2018-04-30T09:01:23.374Z,6.78
2018-04-30T09:02:23.097Z,7.07
2018-04-30T09:03:23.105Z,6.98
2018-04-30T09:04:23.070Z,7.12
2018-04-30T09:05:23.042Z,6.94
2018-04-30T09:06:23.062Z,6.77
2018-04-30T09:07:23.027Z,6.86
2018-04-30T09:08:23.028Z,7.1
2018-04-30T09:09:23.056Z,6.88
2018-04-30T09:10:23.039Z,6.71
2018-04-30T09:11:23.219Z,6.85
2018-04-30T09:12:23.051Z,6.78
2018-04-30T09:13:23.030Z,6.54
2018-04-30T09:14:23.035Z,6.57
2018-04-30T09:15:23.175Z,6.83
2018-04-30T09:16:26.009Z,6.92
2018-04-30T09:17:23.040Z,6.67
2018-04-30T09:18:24.437Z,6.45
2018-04-30T09:19:23.061Z,6.65
2018-04-30T09:20:23.170Z,6.58
2018-04-30T09:21:23.053Z,6.74
2018-04-30T09:22:23.072Z,6.73
2018-04-30T09:23:23.878Z,6.82
2018-04-30T09:24:23.067Z,6.53
2018-04-30T09:25:23.084Z,6.72
2018-04-30T09:26:23.112Z,6.84
2018-04-30T09:27:23.068Z,6.97
2018-04-30T09:28:23.091Z,6.79
2018-04-30T09:29:23.073Z,6.76
2018-04-30T09:30:23.137Z,6.81
2018-04-30T09:31:23.082Z,6.92
2018-04-30T09:32:23.092Z,6.7
2018-04-30T09:33:23.075Z,6.19
2018-04-30T09:34:23.076Z,6.61
2018-04-30T09:35:23.242Z,6.84
2018-04-30T09:36:23.148Z,6.84
2018-04-30T09:37:23.094Z,6.7
2018-04-30T09:38:23.092Z,6.68
2018-04-30T09:39:23.070Z,6.52
2018-04-30T09:40:23.056Z,6.53
2018-04-30T09:41:23.094Z,6.4
2018-04-30T09:42:23.063Z,6.59
2018-04-30T09:43:23.139Z,6.69
2018-04-30T09:44:23.048Z,6.43
2018-04-30T09:45:23.064Z,6.33
2018-04-30T09:46:23.097Z,6.16
2018-04-30T09:47:23.081Z,6.51
2018-04-30T09:48:23.121Z,6.69
2018-04-30T09:49:23.046Z,6.8
2018-04-30T09:50:23.048Z,7.05
2018-04-30T09:51:23.047Z,7.14
2018-04-30T09:52:23.093Z,6.85
2018-04-30T09:53:23.067Z,6.81
2018-04-30T09:54:23.097Z,6.78
2018-04-30T09:55:23.130Z,6.69
2018-04-30T09:56:23.044Z,6.78
2018-04-30T09:57:23.094Z,6.67
2018-04-30T09:58:23.059Z,6.42
2018-04-30T09:59:23.190Z,6.45
2018-04-30T10:00:23.091Z,6.3
2018-04-30T10:01:23.054Z,6.55
2018-04-30T10:02:23.067Z,6.39
2018-04-30T10:03:23.061Z,6.52
2018-04-30T10:04:23.061Z,6.46
2018-04-30T10:05:23.108Z,6.46
2018-04-30T10:06:23.231Z,6.43
2018-04-30T10:07:23.544Z,6.03
2018-04-30T10:08:23.055Z,6.59
2018-04-30T10:09:23.087Z,6.71
2018-04-30T10:10:23.069Z,6.06
2018-04-30T10:11:23.089Z,5.87
2018-04-30T10:12:23.168Z,6.14
2018-04-30T10:13:23.061Z,6.45
2018-04-30T10:14:23.172Z,6.45
2018-04-30T10:15:23.082Z,5.99
2018-04-30T10:16:23.088Z,6.05
2018-04-30T10:17:23.218Z,6.27
2018-04-30T10:18:23.121Z,6.24
2018-04-30T10:19:23.053Z,6.54
2018-04-30T10:20:23.068Z,6.65
2018-04-30T10:21:23.057Z,6.92
2018-04-30T10:22:23.101Z,6.44
2018-04-30T10:23:23.554Z,6.4
2018-04-30T10:24:23.075Z,6.19
2018-04-30T10:25:23.228Z,6.12
2018-04-30T10:26:23.111Z,6
2018-04-30T10:27:23.086Z,5.65
2018-04-30T10:28:23.080Z,6.11
2018-04-30T10:29:23.098Z,6.15
2018-04-30T10:30:23.095Z,5.53
2018-04-30T10:31:23.135Z,5.63
2018-04-30T10:32:23.073Z,5.64
2018-04-30T10:33:23.124Z,5.69
2018-04-30T10:34:23.134Z,5.37
2018-04-30T10:35:23.118Z,5.81
2018-04-30T10:36:23.138Z,5.68
2018-04-30T10:37:23.148Z,6.19
2018-04-30T10:38:23.139Z,5.88
2018-04-30T10:39:23.131Z,5.82
2018-04-30T10:40:23.144Z,5.83
2018-04-30T10:41:23.110Z,5.76
2018-04-30T10:42:23.173Z,5.95
2018-04-30T10:43:23.229Z,5.82
2018-04-30T10:44:23.613Z,6.17
2018-04-30T10:45:23.157Z,6.4
2018-04-30T10:46:23.159Z,6.03
2018-04-30T10:47:23.131Z,6.36
2018-04-30T10:48:23.117Z,6.62
2018-04-30T10:49:23.122Z,6.37
2018-04-30T10:50:23.137Z,6.36
2018-04-30T10:51:23.205Z,6.41
2018-04-30T10:52:23.157Z,6.08
2018-04-30T10:53:23.719Z,6.23
2018-04-30T10:54:23.758Z,6.23
2018-04-30T10:55:23.096Z,6.26
2018-04-30T10:56:24.298Z,6.31
2018-04-30T10:57:23.128Z,6.12
2018-04-30T10:58:23.135Z,6.1
2018-04-30T10:59:23.101Z,5.89
2018-04-30T11:00:23.106Z,5.77
2018-04-30T11:01:23.095Z,5.23
2018-04-30T11:02:23.122Z,5.37
2018-04-30T11:03:23.255Z,5.71
2018-04-30T11:04:23.100Z,5.45
2018-04-30T11:05:23.236Z,5.43
2018-04-30T11:06:23.110Z,5.54
2018-04-30T11:07:23.131Z,5.68
2018-04-30T11:08:23.178Z,5.61
2018-04-30T11:09:23.120Z,6.03
2018-04-30T11:10:23.114Z,6.2
2018-04-30T11:11:23.104Z,5.99
2018-04-30T11:12:23.435Z,6.3
2018-04-30T11:13:23.111Z,6.41
2018-04-30T11:14:23.143Z,6.18
2018-04-30T11:15:23.122Z,6.32
2018-04-30T11:16:23.124Z,6.5
2018-04-30T11:17:23.130Z,6.6
2018-04-30T11:18:23.283Z,6.12
2018-04-30T11:19:23.894Z,6.15
2018-04-30T11:20:23.214Z,5.96
2018-04-30T11:21:24.077Z,5.81
2018-04-30T11:22:23.134Z,5.98
2018-04-30T11:23:23.145Z,5.93
2018-04-30T11:24:23.248Z,5.94
2018-04-30T11:25:23.260Z,6.04
2018-04-30T11:26:23.124Z,6.59
2018-04-30T11:27:23.101Z,7.33
2018-04-30T11:28:25.368Z,7.99
2018-04-30T11:29:23.143Z,7.65
2018-04-30T11:30:23.277Z,8.16
2018-04-30T11:31:23.544Z,8.33
2018-04-30T11:32:23.138Z,7.61
2018-04-30T11:33:23.144Z,7.17
2018-04-30T11:34:23.159Z,7.53
2018-04-30T11:35:23.381Z,6.9
2018-04-30T11:36:24.734Z,6.75
2018-04-30T11:37:23.188Z,6.7
2018-04-30T11:38:23.160Z,6.24
2018-04-30T11:39:23.244Z,6.65
2018-04-30T11:40:23.199Z,6.95
2018-04-30T11:41:23.215Z,6.77
2018-04-30T11:42:23.186Z,6.68
2018-04-30T11:43:23.148Z,6.18
2018-04-30T11:44:23.136Z,6.45
2018-04-30T11:45:24.281Z,6.37
2018-04-30T11:46:23.626Z,5.98
2018-04-30T11:47:23.183Z,6.48
2018-04-30T11:48:23.190Z,6.34
2018-04-30T11:49:23.191Z,6.39
2018-04-30T11:50:23.174Z,5.64
2018-04-30T11:51:23.197Z,5.83
2018-04-30T11:52:23.159Z,5.85
2018-04-30T11:53:23.213Z,5.67
2018-04-30T11:54:24.029Z,6.25
2018-04-30T11:55:23.202Z,5.6
2018-04-30T11:56:23.210Z,5.38
2018-04-30T11:57:23.243Z,5.96
2018-04-30T11:58:28.790Z,6.01
2018-04-30T11:59:23.165Z,5.96
2018-04-30T12:00:23.436Z,5.53
2018-04-30T12:01:24.190Z,5.78
2018-04-30T12:02:24.636Z,6.15
2018-04-30T12:03:23.228Z,5.7
2018-04-30T12:04:23.152Z,5.95
2018-04-30T12:05:23.204Z,5.96
2018-04-30T12:06:23.183Z,5.96
2018-04-30T12:07:23.181Z,6.24
2018-04-30T12:08:23.172Z,5.89
2018-04-30T12:09:23.187Z,5.93
2018-04-30T12:10:23.191Z,5.73
2018-04-30T12:11:23.208Z,5.69
2018-04-30T12:12:23.170Z,5.38
2018-04-30T12:13:23.204Z,5.05
2018-04-30T12:14:23.627Z,5.33
2018-04-30T12:15:23.192Z,5.54
2018-04-30T12:16:23.265Z,5.67
2018-04-30T12:17:23.210Z,5.71
2018-04-30T12:18:23.240Z,5.32
2018-04-30T12:19:23.195Z,5.14
2018-04-30T12:20:23.205Z,5.36
2018-04-30T12:21:23.223Z,5.29
2018-04-30T12:22:23.756Z,5.41
2018-04-30T12:23:23.198Z,5.62
2018-04-30T12:24:23.221Z,5.77
2018-04-30T12:25:23.201Z,5.29
2018-04-30T12:26:23.217Z,4.77
2018-04-30T12:27:23.209Z,5.4
2018-04-30T12:28:23.208Z,5.27
2018-04-30T12:29:23.238Z,5.56
2018-04-30T12:30:23.224Z,5.69
2018-04-30T12:31:25.411Z,5.17
2018-04-30T12:32:23.412Z,5.08
2018-04-30T12:33:23.258Z,5.01
2018-04-30T12:34:23.223Z,5.23
2018-04-30T12:35:23.273Z,5.34
2018-04-30T12:36:23.227Z,4.91
2018-04-30T12:37:23.200Z,5.07
2018-04-30T12:38:23.207Z,5.53
2018-04-30T12:39:23.726Z,5.68
2018-04-30T12:40:25.884Z,5.6
2018-04-30T12:41:23.255Z,5.67
2018-04-30T12:42:23.189Z,5.35
2018-04-30T12:43:23.243Z,5.24
2018-04-30T12:44:23.237Z,5.52
2018-04-30T12:45:23.405Z,5.22
2018-04-30T12:46:23.264Z,5.07
2018-04-30T12:47:23.267Z,4.6
2018-04-30T12:48:23.391Z,4.61
2018-04-30T12:49:25.588Z,5.09
2018-04-30T12:50:23.238Z,5.25
2018-04-30T12:51:23.450Z,5.4
2018-04-30T12:52:23.384Z,5.29
2018-04-30T12:53:23.216Z,5.1
2018-04-30T12:54:23.451Z,5.06
2018-04-30T12:55:24.463Z,4.71
2018-04-30T12:56:23.227Z,4.26
2018-04-30T12:57:23.320Z,4.56
2018-04-30T12:58:23.258Z,4.99
2018-04-30T12:59:23.329Z,5.3
2018-04-30T13:00:23.348Z,5.56
2018-04-30T13:01:23.296Z,5.22
2018-04-30T13:02:23.621Z,5.25
2018-04-30T13:03:23.357Z,5.08
2018-04-30T13:04:23.187Z,5.21
2018-04-30T13:05:23.264Z,5.58
2018-04-30T13:06:23.256Z,5.3
2018-04-30T13:07:23.383Z,5.15
2018-04-30T13:08:23.380Z,4.7
2018-04-30T13:09:23.417Z,4.27
2018-04-30T13:10:23.227Z,4.12
2018-04-30T13:11:23.368Z,4.21
2018-04-30T13:12:23.318Z,3.81
2018-04-30T13:13:23.438Z,3.88
2018-04-30T13:14:25.811Z,3.93
2018-04-30T13:15:23.925Z,3.39
2018-04-30T13:16:23.354Z,3.59
2018-04-30T13:17:23.316Z,3.76
2018-04-30T13:18:23.516Z,4.11
2018-04-30T13:19:23.318Z,4.01
2018-04-30T13:20:23.324Z,3.73
2018-04-30T13:21:23.338Z,3.88